Time;durP1;ratioP1;P1;durP2;ratioP2;P2;SDS_P1;SDS_P2;PMS_P1;PMS_P2;Temp;Humidity;BMP_temperature;BMP_pressure;BME280_temperature;BME280_humidity;BME280_pressure;Samples;Min_cycle;Max_cycle;Signal;HPM_P1;HPM_P2
2023/04/24 00:01:29;;;;;;;6.47;0.90;;;11.30;99.90;;;;;;10481113;28;20052;-25
2023/04/24 00:06:32;;;;;;;3.30;1.38;;;11.90;99.90;;;;;;10481131;28;20048;-25
2023/04/24 00:11:36;;;;;;;2.38;0.60;;;12.20;99.90;;;;;;10490598;28;20048;-24
2023/04/24 00:16:38;;;;;;;3.05;1.15;;;11.50;99.90;;;;;;10495737;28;20135;-25
2023/04/24 00:21:40;;;;;;;2.22;1.00;;;11.30;99.90;;;;;;10494125;28;20143;-24
2023/04/24 00:26:44;;;;;;;3.10;1.30;;;11.80;99.90;;;;;;10492357;28;20452;-25
2023/04/24 00:31:46;;;;;;;5.97;1.48;;;11.60;99.90;;;;;;10494311;28;20105;-25
2023/04/24 00:36:50;;;;;;;2.20;0.70;;;12.90;99.90;;;;;;10497508;28;20044;-25
2023/04/24 00:41:55;;;;;;;3.55;0.45;;;11.80;99.90;;;;;;10494316;28;20056;-28
2023/04/24 00:46:57;;;;;;;2.40;1.02;;;11.10;99.90;;;;;;10489430;28;20056;-25
2023/04/24 00:51:59;;;;;;;2.28;0.82;;;12.40;99.90;;;;;;10479821;28;20466;-24
2023/04/24 00:57:03;;;;;;;1.73;0.37;;;11.90;99.90;;;;;;10482275;28;20053;-26
2023/04/24 01:02:05;;;;;;;5.13;1.20;;;11.50;99.90;;;;;;10502067;28;20055;-23
2023/04/24 01:07:10;;;;;;;3.78;0.85;;;12.50;99.90;;;;;;10494776;28;20044;-24
2023/04/24 01:12:13;;;;;;;2.10;0.80;;;12.50;99.90;;;;;;10486760;28;20045;-26
2023/04/24 01:17:15;;;;;;;6.10;1.05;;;12.40;99.90;;;;;;10508507;28;20537;-26
2023/04/24 01:22:18;;;;;;;2.63;0.70;;;11.80;99.90;;;;;;10510181;28;20056;-25
2023/04/24 01:27:21;;;;;;;1.00;0.60;;;13.00;99.90;;;;;;10485396;28;20083;-24
2023/04/24 01:32:23;;;;;;;2.60;1.70;;;12.70;99.90;;;;;;10502315;28;20056;-26
2023/04/24 01:37:26;;;;;;;3.50;1.03;;;14.10;99.90;;;;;;10504994;28;20050;-25
2023/04/24 01:42:29;;;;;;;4.18;0.75;;;14.70;99.90;;;;;;10495045;28;20053;-25
2023/04/24 01:47:32;;;;;;;2.67;0.80;;;14.50;99.90;;;;;;10500405;28;20144;-25
2023/04/24 01:52:35;;;;;;;;;;;14.60;99.90;;;;;;10508508;28;20056;-25
2023/04/24 01:57:38;;;;;;;4.28;0.75;;;14.40;99.90;;;;;;10499140;28;20007;-24
2023/04/24 02:02:40;;;;;;;6.38;0.88;;;15.20;99.90;;;;;;10493062;28;20383;-23
2023/04/24 02:07:44;;;;;;;3.08;0.95;;;13.20;99.90;;;;;;10497229;28;20056;-24
2023/04/24 02:12:46;;;;;;;4.57;1.60;;;13.30;99.90;;;;;;10483371;28;20085;-24
2023/04/24 02:17:47;;;;;;;4.83;2.37;;;13.60;99.90;;;;;;10498659;28;20394;-26
2023/04/24 02:22:51;;;;;;;2.73;0.87;;;14.20;99.90;;;;;;10504374;28;20048;-25
2023/04/24 02:27:52;;;;;;;2.45;0.77;;;13.80;99.90;;;;;;10493599;28;20048;-26
2023/04/24 02:32:55;;;;;;;3.93;1.83;;;14.00;99.90;;;;;;10498079;28;20110;-24
2023/04/24 02:37:58;;;;;;;1.40;0.50;;;14.50;99.90;;;;;;10475801;28;20044;-24
2023/04/24 02:43:00;;;;;;;4.70;1.08;;;14.70;99.90;;;;;;10476239;28;20050;-24
2023/04/24 02:48:02;;;;;;;3.10;1.00;;;13.90;99.90;;;;;;10495312;28;20603;-25
2023/04/24 02:53:05;;;;;;;3.70;0.60;;;12.50;99.90;;;;;;10481587;28;20074;-24
2023/04/24 02:58:07;;;;;;;3.85;0.70;;;11.80;99.90;;;;;;10497445;28;20132;-25
2023/04/24 03:03:08;;;;;;;7.00;0.98;;;11.30;99.90;;;;;;10483742;28;20099;-26
2023/04/24 03:08:12;;;;;;;4.28;1.55;;;11.20;99.90;;;;;;10483724;28;20041;-25
2023/04/24 03:13:13;;;;;;;19.23;1.67;;;12.80;99.90;;;;;;10484455;28;20540;-25
2023/04/24 03:18:15;;;;;;;11.15;1.77;;;11.80;99.90;;;;;;10491215;28;20064;-26
2023/04/24 03:23:18;;;;;;;7.28;1.23;;;12.00;99.90;;;;;;10495156;28;20114;-23
2023/04/24 03:28:20;;;;;;;7.63;1.13;;;12.30;99.90;;;;;;10504377;28;20181;-24
2023/04/24 03:33:22;;;;;;;4.07;0.85;;;11.80;99.90;;;;;;10497832;28;20472;-25
2023/04/24 03:38:25;;;;;;;6.97;0.98;;;12.60;99.90;;;;;;10486979;28;20052;-26
2023/04/24 03:43:28;;;;;;;11.38;1.40;;;11.80;99.90;;;;;;10481870;28;20529;-25
2023/04/24 03:48:30;;;;;;;10.65;2.38;;;12.00;99.90;;;;;;10486557;28;20052;-25
2023/04/24 03:53:33;;;;;;;19.17;3.30;;;11.20;99.90;;;;;;10473477;28;20060;-26
2023/04/24 03:58:35;;;;;;;14.77;3.60;;;11.10;99.90;;;;;;10503838;28;20135;-25
2023/04/24 04:03:37;;;;;;;8.90;3.55;;;11.00;99.90;;;;;;10506982;28;20049;-24
2023/04/24 04:08:40;;;;;;;13.53;3.47;;;11.20;99.90;;;;;;10488887;28;20084;-25
2023/04/24 04:13:42;;;;;;;13.75;2.88;;;10.20;99.90;;;;;;10481256;28;20445;-25
2023/04/24 04:18:44;;;;;;;12.77;3.63;;;11.10;99.90;;;;;;10499831;28;20044;-25
2023/04/24 04:23:47;;;;;;;10.77;3.63;;;10.90;99.90;;;;;;10477063;28;20135;-24
2023/04/24 04:28:49;;;;;;;12.52;3.03;;;10.90;99.90;;;;;;10470723;28;20099;-27
2023/04/24 04:33:51;;;;;;;19.97;6.53;;;11.80;99.90;;;;;;10485694;28;20044;-24
2023/04/24 04:38:54;;;;;;;23.45;5.50;;;9.90;99.90;;;;;;10503652;28;20118;-25
2023/04/24 04:43:58;;;;;;;;;;;10.10;99.90;;;;;;10504167;28;20043;-26
2023/04/24 04:49:01;;;;;;;30.90;6.53;;;11.20;99.90;;;;;;10501205;28;20326;-25
2023/04/24 04:54:04;;;;;;;26.17;7.60;;;10.50;99.90;;;;;;10501369;28;20047;-25
2023/04/24 04:59:06;;;;;;;13.27;4.63;;;10.40;99.90;;;;;;10489028;28;20045;-25
2023/04/24 05:04:08;;;;;;;22.27;4.57;;;11.70;99.90;;;;;;10488371;28;20060;-25
2023/04/24 05:09:11;;;;;;;26.60;7.35;;;11.20;99.90;;;;;;10501677;28;20048;-24
2023/04/24 05:14:13;;;;;;;17.15;6.28;;;10.70;99.90;;;;;;10494325;28;20466;-25
2023/04/24 05:19:15;;;;;;;17.35;6.80;;;10.50;99.90;;;;;;10499800;28;20067;-25
2023/04/24 05:24:18;;;;;;;17.50;5.22;;;10.80;99.90;;;;;;10481964;28;20053;-25
2023/04/24 05:29:20;;;;;;;22.63;6.40;;;11.10;99.90;;;;;;10484441;28;20163;-25
2023/04/24 05:34:22;;;;;;;19.73;4.65;;;10.80;99.90;;;;;;10482239;28;20045;-25
2023/04/24 05:39:25;;;;;;;20.83;4.40;;;11.20;99.90;;;;;;10479554;28;20099;-23
2023/04/24 05:44:27;;;;;;;25.08;5.05;;;11.70;99.90;;;;;;10482091;28;20063;-26
2023/04/24 05:49:29;;;;;;;20.07;5.87;;;10.60;99.90;;;;;;10489286;28;20102;-25
2023/04/24 05:54:32;;;;;;;15.93;3.65;;;10.30;99.90;;;;;;10497571;28;20040;-25
2023/04/24 05:59:34;;;;;;;16.30;3.85;;;10.80;99.90;;;;;;10512838;28;20044;-25
2023/04/24 06:04:36;;;;;;;15.60;4.00;;;11.10;99.90;;;;;;10492468;28;20045;-27
2023/04/24 06:09:39;;;;;;;20.60;3.88;;;11.00;99.90;;;;;;10485593;28;20123;-24
2023/04/24 06:14:41;;;;;;;17.95;4.32;;;10.10;99.90;;;;;;10496706;28;20093;-26
2023/04/24 06:19:43;;;;;;;20.77;4.75;;;11.00;99.90;;;;;;10516399;28;20135;-24
2023/04/24 06:24:47;;;;;;;16.00;2.83;;;11.20;99.90;;;;;;10491378;28;20084;-25
2023/04/24 06:29:54;;;;;;;19.70;4.30;;;11.50;99.90;;;;;;10493310;28;20048;-24
2023/04/24 06:34:55;;;;;;;15.82;3.55;;;11.60;99.90;;;;;;10493716;28;20056;-25
2023/04/24 06:39:59;;;;;;;24.48;4.88;;;11.50;99.90;;;;;;10482261;28;20488;-23
2023/04/24 06:45:01;;;;;;;14.70;2.45;;;11.60;99.90;;;;;;10481386;28;20044;-24
2023/04/24 06:50:02;;;;;;;16.88;4.00;;;10.80;99.90;;;;;;10475149;28;20051;-24
2023/04/24 06:55:07;;;;;;;18.13;4.28;;;11.50;99.90;;;;;;10486950;28;20567;-25
2023/04/24 07:00:10;;;;;;;17.20;3.25;;;10.70;99.90;;;;;;10473225;28;20124;-25
2023/04/24 07:05:12;;;;;;;14.77;2.58;;;10.40;99.90;;;;;;10489051;28;20159;-24
2023/04/24 07:10:15;;;;;;;11.98;2.97;;;10.50;99.90;;;;;;10457783;28;20694;-23
2023/04/24 07:15:17;;;;;;;13.70;2.85;;;11.20;99.90;;;;;;10481129;28;20048;-23
2023/04/24 07:20:19;;;;;;;13.40;2.53;;;10.70;99.90;;;;;;10495552;28;20076;-23
2023/04/24 07:25:22;;;;;;;15.23;2.45;;;11.00;99.90;;;;;;10466856;28;20140;-24
2023/04/24 07:30:24;;;;;;;17.63;2.58;;;12.00;99.90;;;;;;10480015;28;20049;-23
2023/04/24 07:35:27;;;;;;;16.92;3.47;;;10.60;99.90;;;;;;10481024;28;20131;-24
2023/04/24 07:40:30;;;;;;;;;;;10.20;99.90;;;;;;10475992;28;20064;-22
2023/04/24 07:45:35;;;;;;;18.73;2.58;;;11.80;99.90;;;;;;10481000;28;19930;-24
2023/04/24 07:50:37;;;;;;;10.35;2.10;;;10.50;99.90;;;;;;10478453;28;20053;-24
2023/04/24 07:55:40;;;;;;;10.50;1.90;;;10.10;99.90;;;;;;10475949;28;20477;-24
2023/04/24 08:00:42;;;;;;;11.52;2.05;;;11.00;99.90;;;;;;10494909;28;20481;-24
2023/04/24 08:05:44;;;;;;;11.73;2.15;;;11.00;99.90;;;;;;10475918;28;20171;-24
2023/04/24 08:10:47;;;;;;;6.47;1.95;;;11.80;99.90;;;;;;10464956;28;20577;-24
2023/04/24 08:15:49;;;;;;;7.30;1.48;;;11.20;99.90;;;;;;10498889;28;20044;-24
2023/04/24 08:20:51;;;;;;;6.80;1.97;;;11.30;99.90;;;;;;10482055;28;20071;-24
2023/04/24 08:25:55;;;;;;;8.38;1.30;;;11.20;99.90;;;;;;10481909;28;20054;-23
2023/04/24 08:30:57;;;;;;;12.63;1.73;;;11.20;99.90;;;;;;10477645;28;20076;-24
2023/04/24 08:36:00;;;;;;;4.55;1.15;;;10.70;99.90;;;;;;10483019;28;20052;-22
2023/04/24 08:41:05;;;;;;;5.63;1.13;;;11.70;99.90;;;;;;10486270;28;20056;-24
2023/04/24 08:46:07;;;;;;;11.55;1.48;;;11.80;99.90;;;;;;10495600;28;20057;-23
2023/04/24 08:51:10;;;;;;;4.03;1.10;;;10.80;99.90;;;;;;10493327;28;20053;-24
2023/04/24 08:56:14;;;;;;;3.90;1.00;;;11.40;99.90;;;;;;10494796;28;20127;-24
2023/04/24 09:01:15;;;;;;;5.72;0.98;;;10.80;99.90;;;;;;10482609;28;20159;-24
2023/04/24 09:06:20;;;;;;;4.88;1.10;;;10.40;99.90;;;;;;10495470;28;20154;-25
2023/04/24 09:11:25;;;;;;;8.45;1.60;;;11.00;99.90;;;;;;10482844;28;20059;-22
2023/04/24 09:16:28;;;;;;;9.10;1.25;;;10.40;99.90;;;;;;10488106;28;20136;-25
2023/04/24 09:21:33;;;;;;;2.67;0.90;;;11.10;99.90;;;;;;10500163;28;20075;-23
2023/04/24 09:26:37;;;;;;;3.53;1.15;;;12.50;99.90;;;;;;10501267;28;20051;-25
2023/04/24 09:31:39;;;;;;;3.03;0.85;;;13.40;99.90;;;;;;10492091;28;20724;-24
2023/04/24 09:36:43;;;;;;;7.90;1.10;;;13.80;99.90;;;;;;10484754;28;20102;-24
2023/04/24 09:41:47;;;;;;;6.20;1.17;;;12.10;99.90;;;;;;10480080;28;20052;-23
2023/04/24 09:46:51;;;;;;;6.32;1.25;;;11.90;99.90;;;;;;10487271;28;20064;-22
2023/04/24 09:52:02;;;;;;;6.18;1.13;;;11.50;99.90;;;;;;10500138;28;20056;-25
2023/04/24 09:57:08;;;;;;;3.97;0.98;;;11.10;99.90;;;;;;10490473;28;20430;-23
2023/04/24 10:02:18;;;;;;;8.80;1.30;;;11.60;99.90;;;;;;10488003;28;20059;-24
2023/04/24 10:07:20;;;;;;;10.90;1.83;;;10.70;99.90;;;;;;10489412;28;20052;-24
2023/04/24 10:12:25;;;;;;;12.00;1.13;;;11.80;99.90;;;;;;10497964;28;20156;-24
2023/04/24 10:17:29;;;;;;;7.57;1.10;;;14.50;99.40;;;;;;10497237;28;20044;-22
2023/04/24 10:22:31;;;;;;;8.35;1.08;;;13.10;94.30;;;;;;10494636;28;20072;-24
2023/04/24 10:27:35;;;;;;;12.85;0.85;;;12.70;99.90;;;;;;10512172;28;20432;-24
2023/04/24 10:32:37;;;;;;;5.47;1.08;;;12.70;99.90;;;;;;10514090;28;20092;-24
2023/04/24 10:37:43;;;;;;;11.10;1.50;;;13.10;99.90;;;;;;10491868;28;20076;-24
2023/04/24 10:42:48;;;;;;;6.75;0.80;;;14.10;92.00;;;;;;10491120;28;20139;-24
2023/04/24 10:48:02;;;;;;;6.95;0.90;;;12.60;99.90;;;;;;10491236;28;20064;-24
2023/04/24 10:53:12;;;;;;;2.28;0.63;;;13.20;99.90;;;;;;10517083;28;20052;-24
2023/04/24 10:58:17;;;;;;;4.63;0.98;;;14.00;96.70;;;;;;10512277;28;20046;-25
2023/04/24 11:03:27;;;;;;;3.70;0.70;;;13.30;93.40;;;;;;10514600;28;20060;-24
2023/04/24 11:08:31;;;;;;;5.18;1.13;;;14.30;95.10;;;;;;10493269;28;20357;-25
2023/04/24 11:14:09;;;;;;;4.82;0.70;;;14.80;95.80;;;;;;10505638;28;20260;-23
2023/04/24 11:19:18;;;;;;;3.03;0.80;;;14.30;97.80;;;;;;10500428;28;20044;-25
2023/04/24 11:24:28;;;;;;;4.82;1.25;;;13.20;91.60;;;;;;10497201;28;20076;-24
2023/04/24 11:29:42;;;;;;;6.45;1.20;;;14.50;95.80;;;;;;10496467;28;20055;-24
2023/04/24 11:34:47;;;;;;;5.95;0.93;;;15.00;95.70;;;;;;10508126;28;20046;-24
2023/04/24 11:39:52;;;;;;;5.80;1.17;;;14.40;88.90;;;;;;10482768;28;20052;-24
2023/04/24 11:44:56;;;;;;;10.60;1.58;;;13.70;94.50;;;;;;10478120;28;20386;-23
2023/04/24 11:49:59;;;;;;;7.57;1.40;;;12.80;99.90;;;;;;10484026;28;20131;-23
2023/04/24 11:55:01;;;;;;;13.15;2.33;;;13.20;99.40;;;;;;10496304;28;20488;-22
2023/04/24 12:00:07;;;;;;;11.65;2.13;;;13.80;97.70;;;;;;10473379;28;20083;-24
2023/04/24 12:05:11;;;;;;;10.38;1.60;;;13.90;95.40;;;;;;10492157;28;20092;-24
2023/04/24 12:10:14;;;;;;;4.95;1.10;;;12.60;97.80;;;;;;10506647;28;20050;-24
2023/04/24 12:15:19;;;;;;;6.15;1.42;;;13.90;99.90;;;;;;10480262;28;20056;-25
2023/04/24 12:20:26;;;;;;;6.45;1.45;;;14.50;88.90;;;;;;10468206;28;20416;-24
2023/04/24 12:25:29;;;;;;;7.80;1.42;;;13.70;97.30;;;;;;10490660;28;20458;-24
2023/04/24 12:30:33;;;;;;;9.82;1.75;;;13.90;99.90;;;;;;10480694;28;20131;-23
2023/04/24 12:35:35;;;;;;;15.27;3.25;;;12.70;99.90;;;;;;10495803;28;20072;-22
2023/04/24 12:40:37;;;;;;;13.43;2.00;;;13.40;96.40;;;;;;10488907;28;20507;-23
2023/04/24 12:45:40;;;;;;;10.30;1.50;;;12.70;99.90;;;;;;10484597;28;20087;-24
2023/04/24 12:50:43;;;;;;;9.65;2.05;;;14.90;97.60;;;;;;10481443;28;20152;-24
2023/04/24 12:55:46;;;;;;;22.50;3.15;;;13.40;99.90;;;;;;10478337;28;20036;-26
2023/04/24 13:00:50;;;;;;;9.32;2.15;;;13.00;99.90;;;;;;10485132;28;20080;-23
2023/04/24 13:05:52;;;;;;;8.40;1.73;;;13.00;99.90;;;;;;10479297;28;20045;-23
2023/04/24 13:10:54;;;;;;;16.30;2.72;;;15.00;98.00;;;;;;10471765;28;20049;-24
2023/04/24 13:15:57;;;;;;;9.67;2.07;;;12.80;99.90;;;;;;10469901;28;20072;-24
2023/04/24 13:20:59;;;;;;;15.50;3.47;;;14.60;99.90;;;;;;10485492;28;20130;-24
2023/04/24 13:26:01;;;;;;;9.87;2.27;;;12.90;99.90;;;;;;10503072;28;20045;-24
2023/04/24 13:31:04;;;;;;;13.35;2.58;;;13.20;99.20;;;;;;10500566;28;20120;-25
2023/04/24 13:36:06;;;;;;;10.25;2.05;;;13.90;97.90;;;;;;10501258;28;20068;-22
2023/04/24 13:41:08;;;;;;;11.60;2.03;;;14.00;99.90;;;;;;10488223;28;20045;-23
2023/04/24 13:46:11;;;;;;;14.18;3.50;;;13.70;99.90;;;;;;10496572;28;20139;-22
2023/04/24 13:51:13;;;;;;;18.42;2.53;;;13.70;92.00;;;;;;10522823;28;20135;-22
2023/04/24 13:56:15;;;;;;;15.27;3.40;;;13.80;92.30;;;;;;10492572;28;20048;-25
2023/04/24 14:01:18;;;;;;;12.02;2.78;;;14.50;96.70;;;;;;10497266;28;20098;-23
2023/04/24 14:06:20;;;;;;;16.80;3.10;;;14.10;99.90;;;;;;10502064;28;20076;-24
2023/04/24 14:11:22;;;;;;;10.10;2.70;;;13.80;94.70;;;;;;10485708;28;20053;-25
2023/04/24 14:16:26;;;;;;;12.23;1.93;;;14.70;97.30;;;;;;10476488;28;20507;-22
2023/04/24 14:21:27;;;;;;;11.82;2.28;;;13.80;97.30;;;;;;10485843;28;20072;-25
2023/04/24 14:26:29;;;;;;;14.27;3.00;;;16.70;86.70;;;;;;10501396;28;20056;-24
2023/04/24 14:31:32;;;;;;;7.60;1.80;;;14.70;94.10;;;;;;10499949;28;20044;-24
2023/04/24 14:36:34;;;;;;;11.82;2.72;;;15.70;93.50;;;;;;10504562;28;20048;-24
2023/04/24 14:41:37;;;;;;;21.02;2.88;;;16.00;82.20;;;;;;10484715;28;20048;-23
2023/04/24 14:46:40;;;;;;;15.52;2.65;;;14.00;87.80;;;;;;10495109;28;20265;-23
2023/04/24 14:51:43;;;;;;;16.50;3.47;;;14.10;89.70;;;;;;10496457;28;20544;-24
2023/04/24 14:56:45;;;;;;;;;;;13.00;93.70;;;;;;10504801;28;20465;-24
2023/04/24 15:01:48;;;;;;;12.50;2.92;;;14.20;90.50;;;;;;10509720;28;19920;-24
2023/04/24 15:06:50;;;;;;;11.95;3.15;;;13.90;99.00;;;;;;10509574;28;20056;-24
2023/04/24 15:11:52;;;;;;;32.88;5.03;;;14.80;95.20;;;;;;10495130;28;20059;-24
2023/04/24 15:16:55;;;;;;;14.83;4.10;;;13.70;91.20;;;;;;10494473;28;20565;-25
2023/04/24 15:21:57;;;;;;;16.67;2.95;;;15.40;97.60;;;;;;10494768;28;20076;-24
2023/04/24 15:27:01;;;;;;;10.70;3.63;;;15.60;95.80;;;;;;10491853;28;20091;-24
2023/04/24 15:32:04;;;;;;;18.13;3.03;;;15.80;94.70;;;;;;10491535;28;20476;-25
2023/04/24 15:37:06;;;;;;;19.23;3.17;;;14.20;91.50;;;;;;10472896;28;20068;-24
2023/04/24 15:42:08;;;;;;;13.53;2.90;;;14.90;77.80;;;;;;10492371;28;20047;-24
2023/04/24 15:47:13;;;;;;;28.30;3.37;;;16.60;83.80;;;;;;10474879;28;20783;-23
2023/04/24 15:52:15;;;;;;;11.88;2.80;;;16.40;87.20;;;;;;10474175;28;20061;-24
2023/04/24 15:57:18;;;;;;;16.43;3.40;;;15.90;89.80;;;;;;10484160;28;20048;-25
2023/04/24 16:02:21;;;;;;;11.38;2.45;;;14.70;93.20;;;;;;10474627;28;20490;-24
2023/04/24 16:07:23;;;;;;;9.38;2.70;;;15.20;97.60;;;;;;10471736;28;20144;-24
2023/04/24 16:12:26;;;;;;;15.00;3.40;;;15.70;87.50;;;;;;10476111;28;20049;-23
2023/04/24 16:17:29;;;;;;;8.85;3.08;;;15.10;92.00;;;;;;10481139;28;20466;-25
2023/04/24 16:22:31;;;;;;;14.88;2.80;;;15.90;93.50;;;;;;10491516;28;20485;-24
2023/04/24 16:27:33;;;;;;;11.53;3.27;;;14.40;78.20;;;;;;10474102;28;20049;-24
2023/04/24 16:32:36;;;;;;;12.75;2.70;;;15.10;88.60;;;;;;10483285;28;20524;-24
2023/04/24 16:37:38;;;;;;;14.48;2.92;;;14.90;92.00;;;;;;10474530;28;20136;-23
2023/04/24 16:42:40;;;;;;;17.83;3.43;;;14.70;80.00;;;;;;10489304;28;20503;-23
2023/04/24 16:47:43;;;;;;;7.10;1.77;;;14.40;72.40;;;;;;10473066;28;20512;-21
2023/04/24 16:52:45;;;;;;;11.02;2.42;;;15.10;99.90;;;;;;10471133;28;20136;-23
2023/04/24 16:57:47;;;;;;;7.57;2.70;;;13.80;90.30;;;;;;10486447;28;20716;-23
2023/04/24 17:02:50;;;;;;;13.20;2.70;;;14.30;92.90;;;;;;10492491;28;20103;-24
2023/04/24 17:07:52;;;;;;;12.52;2.50;;;15.00;83.40;;;;;;10503848;28;20059;-24
2023/04/24 17:12:54;;;;;;;10.47;2.50;;;14.20;95.80;;;;;;10501078;28;20048;-23
2023/04/24 17:17:57;;;;;;;13.97;2.80;;;14.80;95.80;;;;;;10492951;28;20068;-25
2023/04/24 17:22:59;;;;;;;12.48;2.80;;;13.60;87.60;;;;;;10492135;28;20045;-22
2023/04/24 17:28:01;;;;;;;13.57;2.87;;;14.10;99.90;;;;;;10488547;28;20480;-24
2023/04/24 17:33:04;;;;;;;10.37;2.40;;;15.50;97.40;;;;;;10504983;28;20101;-24
2023/04/24 17:38:06;;;;;;;20.55;3.25;;;14.30;99.90;;;;;;10514584;28;20050;-24
2023/04/24 17:43:08;;;;;;;19.05;4.07;;;14.40;95.30;;;;;;10504410;28;20131;-24
2023/04/24 17:48:11;;;;;;;13.53;2.40;;;14.80;88.70;;;;;;10505657;28;20078;-23
2023/04/24 17:53:14;;;;;;;10.77;2.75;;;14.70;90.10;;;;;;10504061;28;20122;-24
2023/04/24 17:58:17;;;;;;;;;;;14.60;81.80;;;;;;10494022;28;20117;-24
2023/04/24 18:03:20;;;;;;;12.02;2.15;;;13.90;80.10;;;;;;10490350;28;20015;-24
2023/04/24 18:08:22;;;;;;;6.32;1.75;;;15.30;98.90;;;;;;10499424;28;20144;-24
2023/04/24 18:13:24;;;;;;;12.43;2.40;;;15.70;93.80;;;;;;10486838;28;20129;-24
2023/04/24 18:18:27;;;;;;;10.00;2.27;;;15.30;89.00;;;;;;10490613;28;20072;-23
2023/04/24 18:23:29;;;;;;;12.73;2.13;;;15.50;96.30;;;;;;10488280;28;20094;-24
2023/04/24 18:28:33;;;;;;;10.25;2.60;;;16.80;91.90;;;;;;10497706;28;20716;-24
2023/04/24 18:33:36;;;;;;;15.45;1.80;;;16.80;86.20;;;;;;10485800;28;20040;-23
2023/04/24 18:38:38;;;;;;;10.38;2.17;;;14.70;90.60;;;;;;10497449;28;20047;-23
2023/04/24 18:43:40;;;;;;;6.57;2.80;;;14.20;81.40;;;;;;10486089;28;20078;-24
2023/04/24 18:48:43;;;;;;;5.83;1.80;;;14.70;87.40;;;;;;10503395;28;20139;-23
2023/04/24 18:53:45;;;;;;;7.75;1.73;;;15.50;90.90;;;;;;10495190;28;20135;-24
2023/04/24 18:58:47;;;;;;;6.40;1.70;;;15.30;94.80;;;;;;10488788;28;20139;-24
2023/04/24 19:03:50;;;;;;;10.05;1.92;;;16.80;83.60;;;;;;10495192;28;20056;-24
2023/04/24 19:08:52;;;;;;;11.73;3.22;;;17.90;78.50;;;;;;10481874;28;20141;-24
2023/04/24 19:13:54;;;;;;;21.80;3.13;;;15.80;88.90;;;;;;10500591;28;20560;-24
2023/04/24 19:18:57;;;;;;;12.17;2.27;;;14.00;98.40;;;;;;10463793;28;20098;-24
2023/04/24 19:23:59;;;;;;;11.48;2.13;;;14.30;97.50;;;;;;10494429;28;20076;-25
2023/04/24 19:29:01;;;;;;;10.87;2.50;;;13.60;99.90;;;;;;10486269;28;20131;-23
2023/04/24 19:34:05;;;;;;;5.10;1.30;;;12.00;99.90;;;;;;10494672;28;20131;-24
2023/04/24 19:39:07;;;;;;;11.95;2.10;;;14.80;92.30;;;;;;10476360;28;20052;-24
2023/04/24 19:44:09;;;;;;;14.73;2.63;;;14.10;99.90;;;;;;10495672;28;20063;-22
2023/04/24 19:49:14;;;;;;;15.27;2.93;;;15.50;95.30;;;;;;10493642;28;20564;-22
2023/04/24 19:54:16;;;;;;;14.63;2.05;;;13.30;99.90;;;;;;10491464;28;20040;-24
2023/04/24 19:59:18;;;;;;;10.20;2.60;;;15.20;93.70;;;;;;10483850;28;20083;-24
2023/04/24 20:04:21;;;;;;;10.88;1.67;;;13.80;99.80;;;;;;10487742;28;20126;-23
2023/04/24 20:09:23;;;;;;;11.30;2.25;;;13.70;99.90;;;;;;10493833;28;20052;-23
2023/04/24 20:14:25;;;;;;;6.90;2.10;;;15.20;95.30;;;;;;10471165;28;20048;-23
2023/04/24 20:19:28;;;;;;;14.37;2.30;;;13.60;91.00;;;;;;10502859;28;20045;-24
2023/04/24 20:24:30;;;;;;;9.98;1.67;;;13.80;95.60;;;;;;10510204;28;20519;-23
2023/04/24 20:29:32;;;;;;;14.87;1.93;;;14.70;81.20;;;;;;10506026;28;20123;-25
2023/04/24 20:34:35;;;;;;;5.87;2.37;;;14.80;98.50;;;;;;10496884;28;20404;-24
2023/04/24 20:39:37;;;;;;;8.95;2.05;;;14.90;83.30;;;;;;10487159;28;20132;-24
2023/04/24 20:44:40;;;;;;;3.80;1.70;;;15.30;90.30;;;;;;10477546;28;20044;-24
2023/04/24 20:49:43;;;;;;;;;;;17.00;80.90;;;;;;10463315;28;20049;-24
2023/04/24 20:54:45;;;;;;;16.95;2.50;;;15.80;93.50;;;;;;10477791;28;19975;-22
2023/04/24 20:59:47;;;;;;;11.32;2.88;;;14.60;78.10;;;;;;10486394;28;20102;-25
2023/04/24 21:04:50;;;;;;;6.17;2.30;;;14.90;94.90;;;;;;10480789;28;20747;-25
2023/04/24 21:09:52;;;;;;;7.47;1.83;;;16.40;90.50;;;;;;10479486;28;20585;-24
2023/04/24 21:14:54;;;;;;;8.77;2.33;;;17.10;81.90;;;;;;10477772;28;20441;-24
2023/04/24 21:19:57;;;;;;;5.82;1.65;;;16.30;90.20;;;;;;10482785;28;20044;-23
2023/04/24 21:24:59;;;;;;;8.35;2.13;;;15.80;90.30;;;;;;10483365;28;20080;-25
2023/04/24 21:30:01;;;;;;;5.03;1.60;;;16.90;79.90;;;;;;10496659;28;20047;-24
2023/04/24 21:35:04;;;;;;;6.65;2.42;;;18.00;74.40;;;;;;10452194;28;20493;-24
2023/04/24 21:40:10;;;;;;;9.35;2.63;;;17.40;77.90;;;;;;10487842;28;20041;-24
2023/04/24 21:45:12;;;;;;;4.63;2.03;;;16.10;81.20;;;;;;10475844;28;20084;-24
2023/04/24 21:50:15;;;;;;;5.32;2.13;;;17.60;76.90;;;;;;10493282;28;20075;-24
2023/04/24 21:55:17;;;;;;;5.05;2.15;;;17.90;74.80;;;;;;10474723;28;20040;-22
2023/04/24 22:00:18;;;;;;;3.90;2.15;;;17.80;73.50;;;;;;10490988;28;20503;-23
2023/04/24 22:05:22;;;;;;;5.97;1.95;;;17.40;77.50;;;;;;10482918;28;20047;-23
2023/04/24 22:10:25;;;;;;;5.20;1.77;;;15.60;77.60;;;;;;10485452;28;20140;-24
2023/04/24 22:15:27;;;;;;;5.70;1.85;;;16.30;86.20;;;;;;10483987;28;20048;-23
2023/04/24 22:20:32;;;;;;;16.63;3.10;;;16.40;85.00;;;;;;10488433;28;20119;-24
2023/04/24 22:25:34;;;;;;;11.43;2.33;;;13.80;69.40;;;;;;10490937;28;20044;-23
2023/04/24 22:30:36;;;;;;;10.50;2.55;;;15.40;92.00;;;;;;10502063;28;20432;-24
2023/04/24 22:35:39;;;;;;;5.30;2.20;;;17.00;77.00;;;;;;10493788;28;20048;-24
2023/04/24 22:40:42;;;;;;;12.10;2.58;;;17.30;73.40;;;;;;10502880;28;20140;-24
2023/04/24 22:45:44;;;;;;;12.77;2.92;;;15.00;69.80;;;;;;10493348;28;20393;-24
2023/04/24 22:50:47;;;;;;;16.20;3.22;;;15.00;72.20;;;;;;10501281;28;20045;-24
2023/04/24 22:55:49;;;;;;;8.93;2.95;;;16.20;83.60;;;;;;10494344;28;20072;-25
2023/04/24 23:00:51;;;;;;;7.43;2.73;;;16.10;87.20;;;;;;10492954;28;20144;-24
2023/04/24 23:05:54;;;;;;;6.30;2.90;;;16.30;84.70;;;;;;10491419;28;20087;-24
2023/04/24 23:10:56;;;;;;;9.25;2.25;;;17.60;70.80;;;;;;10490342;28;20045;-24
2023/04/24 23:15:58;;;;;;;13.77;2.90;;;14.60;75.10;;;;;;10470491;28;20083;-24
2023/04/24 23:21:02;;;;;;;9.93;3.13;;;15.80;71.50;;;;;;10475550;28;20041;-24
2023/04/24 23:26:04;;;;;;;7.72;2.67;;;16.40;82.80;;;;;;10487954;28;20081;-23
2023/04/24 23:31:06;;;;;;;10.50;2.97;;;17.00;77.70;;;;;;10501466;28;20055;-23
2023/04/24 23:36:10;;;;;;;9.10;3.27;;;16.10;76.10;;;;;;10495904;28;20132;-23
2023/04/24 23:41:12;;;;;;;8.98;3.25;;;17.20;76.50;;;;;;10497779;28;20539;-23
2023/04/24 23:46:14;;;;;;;7.00;2.93;;;16.30;83.10;;;;;;10506526;28;20486;-23
2023/04/24 23:51:17;;;;;;;6.80;2.22;;;18.00;70.70;;;;;;10483412;28;20046;-24
2023/04/24 23:56:23;;;;;;;7.97;2.92;;;16.60;75.20;;;;;;10492257;28;20048;-24
